createdAt,value
2023-05-18T00:02:49.639Z,101059.88
2023-05-18T00:05:51.803Z,101052.94
2023-05-18T00:08:54.073Z,101055.44
2023-05-18T00:11:56.591Z,101060.28
2023-05-18T00:14:58.924Z,101056.50
2023-05-18T00:18:01.132Z,101059.22
2023-05-18T00:21:03.269Z,101058.59
2023-05-18T00:24:05.627Z,101055.44
2023-05-18T00:27:07.792Z,101060.28
2023-05-18T00:30:10.366Z,101051.69
2023-05-18T00:33:12.430Z,101050.63
2023-05-18T00:36:14.952Z,101056.09
2023-05-18T00:39:17.009Z,101051.69
2023-05-18T00:42:19.057Z,101059.88
2023-05-18T00:45:21.756Z,101060.06
2023-05-18T00:48:23.912Z,101057.16
2023-05-18T00:51:26.526Z,101064.91
2023-05-18T00:54:28.716Z,101060.72
2023-05-18T00:57:30.937Z,101064.28
2023-05-18T01:00:34.110Z,101067.84
2023-05-18T01:03:39.385Z,101068.06
2023-05-18T01:06:43.137Z,101073.50
2023-05-18T01:09:45.553Z,101066.59
2023-05-18T01:13:03.316Z,101070.97
2023-05-18T01:16:10.259Z,101065.34
2023-05-18T01:19:24.506Z,101063.44
2023-05-18T01:22:45.359Z,101072.47
2023-05-18T01:25:53.713Z,101080.03
2023-05-18T01:28:56.695Z,101088.41
2023-05-18T01:31:58.972Z,101090.28
2023-05-18T01:35:02.240Z,101091.34
2023-05-18T01:38:05.855Z,101083.78
2023-05-18T01:41:16.752Z,101091.34
2023-05-18T01:44:18.856Z,101095.56
2023-05-18T01:47:21.044Z,101087.56
2023-05-18T01:50:38.058Z,101089.69
2023-05-18T01:53:46.742Z,101088.84
2023-05-18T01:56:52.261Z,101087.56
2023-05-18T01:59:55.537Z,101095.31
2023-05-18T02:02:58.216Z,101090.09
2023-05-18T02:06:00.474Z,101099.69
2023-05-18T02:09:05.834Z,101106.63
2023-05-18T02:12:08.662Z,101111.66
2023-05-18T02:15:11.143Z,101103.91
2023-05-18T02:18:13.249Z,101099.28
2023-05-18T02:21:15.473Z,101097.63
2023-05-18T02:24:20.715Z,101100.53
2023-05-18T02:27:22.713Z,101102.84
2023-05-18T02:30:24.678Z,101098.63
2023-05-18T02:33:26.910Z,101113.53
2023-05-18T02:36:37.291Z,101108.69
2023-05-18T02:39:40.493Z,101109.97
2023-05-18T02:42:43.256Z,101121.88
2023-05-18T02:45:46.266Z,101118.31
2023-05-18T02:48:48.535Z,101125.25
2023-05-18T02:51:50.946Z,101131.13
2023-05-18T02:54:54.922Z,101130.06
2023-05-18T02:58:08.419Z,101135.50
2023-05-18T03:01:37.046Z,101143.06
2023-05-18T03:04:39.224Z,101140.75
2023-05-18T03:07:42.404Z,101143.25
2023-05-18T03:10:45.500Z,101146.63
2023-05-18T03:13:48.742Z,101138.88
2023-05-18T03:16:54.450Z,101146.84
2023-05-18T03:19:58.820Z,101151.25
2023-05-18T03:23:01.188Z,101152.09
2023-05-18T03:26:04.050Z,101163.19
2023-05-18T03:29:06.547Z,101152.31
2023-05-18T03:32:08.632Z,101149.56
2023-05-18T03:35:11.784Z,101155.03
2023-05-18T03:38:15.046Z,101156.69
2023-05-18T03:41:22.350Z,101163.84
2023-05-18T03:44:25.612Z,101155.69
2023-05-18T03:47:27.873Z,101162.16
2023-05-18T03:50:30.290Z,101167.47
2023-05-18T03:53:33.971Z,101175.41
2023-05-18T03:56:36.048Z,101159.28
2023-05-18T03:59:38.498Z,101171.66
2023-05-18T04:02:40.834Z,101163.72
2023-05-18T04:05:46.650Z,101172.09
2023-05-18T04:08:52.483Z,101175.03
2023-05-18T04:11:54.701Z,101175.69
2023-05-18T04:15:01.356Z,101170.41
2023-05-18T04:18:04.014Z,101175.44
2023-05-18T04:21:07.168Z,101171.41
2023-05-18T04:24:10.821Z,101178.22
2023-05-18T04:27:13.955Z,101180.44
2023-05-18T04:33:38.786Z,101177.59
2023-05-18T04:36:47.235Z,101186.09
2023-05-18T04:39:53.480Z,101187.50
2023-05-18T04:42:55.814Z,101182.25
2023-05-18T04:46:02.935Z,101187.09
2023-05-18T04:49:07.025Z,101194.34
2023-05-18T04:52:11.230Z,101198.91
2023-05-18T04:55:13.979Z,101206.84
2023-05-18T04:58:17.583Z,101204.69
2023-05-18T05:01:20.272Z,101193.13
2023-05-18T05:04:24.033Z,101213.19
2023-05-18T05:07:27.640Z,101204.88
2023-05-18T05:10:29.674Z,101215.88
2023-05-18T05:13:31.802Z,101214.63
2023-05-18T05:16:35.190Z,101220.31
2023-05-18T05:19:37.412Z,101214.03
2023-05-18T05:22:40.662Z,101222.03
2023-05-18T05:25:45.359Z,101223.09
2023-05-18T05:28:48.028Z,101222.94
2023-05-18T05:31:50.605Z,101224.19
2023-05-18T05:34:53.136Z,101228.59
2023-05-18T05:37:56.525Z,101227.09
2023-05-18T05:41:00.512Z,101239.31
2023-05-18T05:44:02.688Z,101231.69
2023-05-18T05:47:05.547Z,101224.75
2023-05-18T05:50:08.391Z,101227.69
2023-05-18T05:53:11.055Z,101224.97
2023-05-18T05:56:14.808Z,101228.13
2023-05-18T05:59:17.005Z,101228.38
2023-05-18T06:02:20.938Z,101235.28
2023-05-18T06:05:23.525Z,101234.44
2023-05-18T06:08:26.948Z,101237.88
2023-05-18T06:11:30.870Z,101229.91
2023-05-18T06:14:33.097Z,101242.03
2023-05-18T06:17:38.830Z,101233.59
2023-05-18T06:20:41.156Z,101232.53
2023-05-18T06:23:44.796Z,101239.31
2023-05-18T06:27:08.398Z,101234.63
2023-05-18T06:30:19.428Z,101238.00
2023-05-18T06:33:40.261Z,101247.28
2023-05-18T06:36:51.570Z,101235.91
2023-05-18T06:39:54.020Z,101231.50
2023-05-18T06:42:59.029Z,101230.38
2023-05-18T06:46:11.163Z,101230.38
2023-05-18T06:49:15.725Z,101222.63
2023-05-18T06:52:17.982Z,101234.56
2023-05-18T06:55:20.924Z,101232.50
2023-05-18T06:58:26.191Z,101246.09
2023-05-18T07:01:29.269Z,101240.44
2023-05-18T07:04:34.510Z,101245.97
2023-05-18T07:07:57.117Z,101251.84
2023-05-18T07:11:02.699Z,101248.91
2023-05-18T07:14:04.886Z,101252.91
2023-05-18T07:17:11.715Z,101247.25
2023-05-18T07:20:13.813Z,101251.25
2023-05-18T07:23:18.953Z,101255.66
2023-05-18T07:26:22.875Z,101247.63
2023-05-18T07:29:25.112Z,101246.38
2023-05-18T07:32:27.570Z,101250.09
2023-05-18T07:35:29.977Z,101242.53
2023-05-18T07:38:32.604Z,101257.03
2023-05-18T07:41:35.315Z,101248.38
2023-05-18T07:44:38.876Z,101239.09
2023-05-18T07:47:41.006Z,101238.25
2023-05-18T07:50:43.097Z,101247.47
2023-05-18T07:53:46.165Z,101240.97
2023-05-18T07:56:48.714Z,101240.91
2023-05-18T07:59:51.358Z,101240.22
2023-05-18T08:02:54.146Z,101235.16
2023-05-18T08:06:19.306Z,101238.03
2023-05-18T08:09:24.773Z,101237.00
2023-05-18T08:12:30.078Z,101239.06
2023-05-18T08:15:32.684Z,101238.38
2023-05-18T08:18:35.426Z,101240.56
2023-05-18T08:21:37.688Z,101239.09
2023-05-18T08:27:56.140Z,101225.50
2023-05-18T08:30:58.817Z,101234.03
2023-05-18T08:34:05.094Z,101233.13
2023-05-18T08:37:07.899Z,101231.16
2023-05-18T08:40:14.766Z,101243.34
2023-05-18T08:43:23.471Z,101230.94
2023-05-18T08:46:51.220Z,101239.72
2023-05-18T08:49:57.299Z,101235.06
2023-05-18T08:53:06.253Z,101228.13
2023-05-18T08:56:11.551Z,101237.81
2023-05-18T08:59:18.784Z,101231.50
2023-05-18T09:02:21.199Z,101237.88
2023-05-18T09:05:24.049Z,101217.97
2023-05-18T09:08:26.995Z,101235.63
2023-05-18T09:11:29.543Z,101227.38
2023-05-18T09:14:32.684Z,101224.91
2023-05-18T09:17:40.472Z,101237.97
2023-05-18T09:20:43.771Z,101233.78
2023-05-18T09:23:48.226Z,101223.84
2023-05-18T09:26:51.243Z,101226.34
2023-05-18T09:29:55.228Z,101225.31
2023-05-18T09:32:57.577Z,101226.47
2023-05-18T09:36:02.498Z,101214.81
2023-05-18T09:39:10.236Z,101212.09
2023-05-18T09:42:12.644Z,101214.81
2023-05-18T09:45:26.771Z,101208.91
2023-05-18T09:48:28.902Z,101195.28
2023-05-18T09:51:31.734Z,101208.44
2023-05-18T09:54:36.084Z,101207.09
2023-05-18T09:57:43.379Z,101195.72
2023-05-18T10:00:56.869Z,101210.75
2023-05-18T10:04:04.107Z,101209.78
2023-05-18T10:07:13.920Z,101213.72
2023-05-18T10:10:20.559Z,101199.50
2023-05-18T10:13:26.663Z,101194.91
2023-05-18T10:16:29.234Z,101201.00
2023-05-18T10:19:36.239Z,101191.09
2023-05-18T10:22:39.579Z,101184.78
2023-05-18T10:25:45.147Z,101196.00
2023-05-18T10:28:50.495Z,101189.63
2023-05-18T10:31:54.769Z,101181.41
2023-05-18T10:34:59.723Z,101196.31
2023-05-18T10:38:05.993Z,101191.19
2023-05-18T10:41:08.300Z,101183.34
2023-05-18T10:44:11.019Z,101190.81
2023-05-18T10:47:18.143Z,101186.56
2023-05-18T10:50:25.417Z,101180.47
2023-05-18T10:53:30.380Z,101174.50
2023-05-18T10:56:33.063Z,101170.72
2023-05-18T10:59:35.757Z,101173.34
2023-05-18T11:02:43.236Z,101172.78
2023-05-18T11:05:52.441Z,101171.53
2023-05-18T11:08:54.854Z,101159.78
2023-05-18T11:12:03.573Z,101153.81
2023-05-18T11:15:06.322Z,101163.59
2023-05-18T11:18:16.229Z,101157.63
2023-05-18T11:21:20.872Z,101158.72
2023-05-18T11:28:14.912Z,101154.88
2023-05-18T11:31:18.974Z,101155.56
2023-05-18T11:34:42.497Z,101155.78
2023-05-18T11:37:49.597Z,101157.69
2023-05-18T11:40:53.607Z,101145.94
2023-05-18T11:44:18.921Z,101155.59
2023-05-18T11:47:21.524Z,101138.69
2023-05-18T11:50:23.626Z,101149.28
2023-05-18T11:53:27.324Z,101153.38
2023-05-18T11:56:33.757Z,101151.72
2023-05-18T11:59:43.977Z,101150.19
2023-05-18T12:02:47.930Z,101149.66
2023-05-18T12:05:50.857Z,101151.47
2023-05-18T12:08:54.162Z,101158.00
2023-05-18T12:11:56.228Z,101154.06
2023-05-18T12:15:01.091Z,101153.41
2023-05-18T12:18:03.293Z,101159.09
2023-05-18T12:21:06.103Z,101154.47
2023-05-18T12:24:08.570Z,101148.63
2023-05-18T12:27:13.302Z,101155.88
2023-05-18T12:30:22.789Z,101139.56
2023-05-18T12:33:25.201Z,101148.38
2023-05-18T12:36:27.555Z,101153.41
2023-05-18T12:39:29.638Z,101139.66
2023-05-18T12:42:32.866Z,101135.56
2023-05-18T12:45:35.297Z,101136.50
2023-05-18T12:48:47.150Z,101138.78
2023-05-18T12:51:49.205Z,101145.56
2023-05-18T12:55:00.939Z,101132.00
2023-05-18T12:58:18.487Z,101135.84
2023-05-18T13:01:21.852Z,101143.97
2023-05-18T13:04:24.253Z,101142.88
2023-05-18T13:07:26.978Z,101133.47
2023-05-18T13:10:33.004Z,101129.38
2023-05-18T13:13:35.125Z,101134.13
2023-05-18T13:16:45.356Z,101131.38
2023-05-18T13:19:47.434Z,101136.41
2023-05-18T13:22:52.561Z,101136.88
2023-05-18T13:25:58.725Z,101126.88
2023-05-18T13:29:01.188Z,101129.38
2023-05-18T13:32:03.273Z,101118.38
2023-05-18T13:35:06.733Z,101128.16
2023-05-18T13:38:13.398Z,101128.44
2023-05-18T13:41:15.725Z,101117.09
2023-05-18T13:44:18.656Z,101123.66
2023-05-18T13:47:20.728Z,101125.19
2023-05-18T13:50:24.935Z,101133.75
2023-05-18T13:53:26.895Z,101127.53
2023-05-18T13:56:28.884Z,101135.50
2023-05-18T13:59:55.100Z,101133.09
2023-05-18T14:02:57.632Z,101138.59
2023-05-18T14:05:59.815Z,101137.13
2023-05-18T14:09:03.849Z,101128.00
2023-05-18T14:12:07.921Z,101126.38
2023-05-18T14:15:11.665Z,101121.75
2023-05-18T14:18:18.189Z,101126.88
2023-05-18T14:21:20.347Z,101131.88
2023-05-18T14:24:22.760Z,101130.28
2023-05-18T14:27:25.621Z,101130.97
2023-05-18T14:30:30.216Z,101126.16
2023-05-18T14:33:32.428Z,101134.75
2023-05-18T14:36:37.445Z,101126.53
2023-05-18T14:39:41.939Z,101139.94
2023-05-18T14:42:43.986Z,101119.56
2023-05-18T14:45:50.645Z,101122.06
2023-05-18T14:49:01.534Z,101120.88
2023-05-18T14:52:06.782Z,101119.22
2023-05-18T14:58:29.788Z,101116.53
2023-05-18T15:01:33.263Z,101113.78
2023-05-18T15:04:36.480Z,101116.28
2023-05-18T15:07:39.786Z,101114.81
2023-05-18T15:10:43.334Z,101109.91
2023-05-18T15:13:48.731Z,101113.75
2023-05-18T15:16:50.721Z,101112.88
2023-05-18T15:19:54.086Z,101118.38
2023-05-18T15:22:58.219Z,101124.13
2023-05-18T15:26:00.375Z,101118.28
2023-05-18T15:29:04.681Z,101135.66
2023-05-18T15:32:10.194Z,101131.94
2023-05-18T15:35:16.507Z,101126.41
2023-05-18T15:38:19.244Z,101135.78
2023-05-18T15:41:26.604Z,101145.56
2023-05-18T15:44:29.723Z,101146.81
2023-05-18T15:47:32.055Z,101137.22
2023-05-18T15:50:37.671Z,101145.81
2023-05-18T15:53:40.172Z,101145.69
2023-05-18T15:56:43.969Z,101152.84
2023-05-18T15:59:51.280Z,101145.53
2023-05-18T16:02:53.459Z,101155.66
2023-05-18T16:05:55.690Z,101157.19
2023-05-18T16:08:57.923Z,101162.66
2023-05-18T16:12:00.050Z,101159.75
2023-05-18T16:15:03.552Z,101164.88
2023-05-18T16:18:06.207Z,101160.31
2023-05-18T16:21:09.975Z,101169.59
2023-05-18T16:24:14.660Z,101161.06
2023-05-18T16:27:16.895Z,101167.97
2023-05-18T16:30:19.345Z,101167.19
2023-05-18T16:33:21.314Z,101169.16
2023-05-18T16:36:26.481Z,101178.47
2023-05-18T16:39:28.772Z,101166.34
2023-05-18T16:42:31.212Z,101171.59
2023-05-18T16:45:33.777Z,101185.44
2023-05-18T16:48:36.307Z,101174.97
2023-05-18T16:51:38.282Z,101172.34
2023-05-18T16:54:40.256Z,101179.69
2023-05-18T16:57:43.603Z,101169.41
2023-05-18T17:00:45.662Z,101175.28
2023-05-18T17:03:48.662Z,101176.63
2023-05-18T17:06:52.382Z,101166.03
2023-05-18T17:09:54.405Z,101177.22
2023-05-18T17:12:58.196Z,101179.22
2023-05-18T17:16:00.465Z,101178.66
2023-05-18T17:19:06.158Z,101178.75
2023-05-18T17:22:18.648Z,101172.28
2023-05-18T17:25:23.887Z,101196.97
2023-05-18T17:28:28.840Z,101195.41
2023-05-18T17:31:31.344Z,101198.59
2023-05-18T17:34:33.395Z,101190.91
2023-05-18T17:37:36.218Z,101204.63
2023-05-18T17:40:38.158Z,101191.22
2023-05-18T17:43:40.261Z,101203.88
2023-05-18T17:46:44.823Z,101205.41
2023-05-18T17:49:47.641Z,101206.53
2023-05-18T17:52:49.693Z,101200.94
2023-05-18T17:55:54.605Z,101207.94
2023-05-18T17:58:59.469Z,101216.38
2023-05-18T18:02:01.735Z,101206.56
2023-05-18T18:05:04.233Z,101217.59
2023-05-18T18:08:06.629Z,101226.75
2023-05-18T18:11:09.678Z,101233.16
2023-05-18T18:14:16.495Z,101234.06
2023-05-18T18:17:19.262Z,101226.78
2023-05-18T18:20:21.688Z,101230.88
2023-05-18T18:23:23.841Z,101232.22
2023-05-18T18:26:26.872Z,101237.31
2023-05-18T18:29:31.157Z,101239.06
2023-05-18T18:32:33.307Z,101251.06
2023-05-18T18:35:38.912Z,101255.09
2023-05-18T18:38:41.993Z,101258.03
2023-05-18T18:41:44.953Z,101260.63
2023-05-18T18:44:47.105Z,101262.13
2023-05-18T18:47:49.270Z,101269.13
2023-05-18T18:50:51.605Z,101272.72
2023-05-18T18:53:54.666Z,101287.53
2023-05-18T18:56:56.789Z,101293.63
2023-05-18T18:59:59.295Z,101292.22
2023-05-18T19:03:05.102Z,101306.72
2023-05-18T19:06:07.218Z,101294.16
2023-05-18T19:09:09.353Z,101296.88
2023-05-18T19:12:11.511Z,101299.63
2023-05-18T19:15:14.037Z,101316.44
2023-05-18T19:18:16.549Z,101305.94
2023-05-18T19:21:19.401Z,101311.06
2023-05-18T19:24:22.732Z,101311.47
2023-05-18T19:27:25.037Z,101313.59
2023-05-18T19:30:28.574Z,101328.34
2023-05-18T19:33:35.637Z,101329.00
2023-05-18T19:36:39.568Z,101334.53
2023-05-18T19:39:42.938Z,101343.75
2023-05-18T19:42:45.383Z,101343.16
2023-05-18T19:45:49.963Z,101351.16
2023-05-18T19:48:53.147Z,101348.22
2023-05-18T19:52:00.292Z,101344.41
2023-05-18T19:55:03.511Z,101352.63
2023-05-18T19:58:06.750Z,101353.94
2023-05-18T20:01:10.177Z,101361.69
2023-05-18T20:04:13.301Z,101375.78
2023-05-18T20:07:17.819Z,101381.66
2023-05-18T20:10:19.854Z,101380.16
2023-05-18T20:13:23.107Z,101390.25
2023-05-18T20:16:26.608Z,101402.06
2023-05-18T20:19:29.056Z,101405.81
2023-05-18T20:22:31.230Z,101409.41
2023-05-18T20:25:35.296Z,101411.91
2023-05-18T20:28:37.559Z,101418.19
2023-05-18T20:31:40.437Z,101424.34
2023-05-18T20:34:44.596Z,101429.59
2023-05-18T20:37:47.461Z,101434.41
2023-05-18T20:40:51.386Z,101439.03
2023-05-18T20:43:53.858Z,101443.66
2023-05-18T20:46:56.089Z,101440.50
2023-05-18T20:49:58.890Z,101444.72
2023-05-18T20:53:01.397Z,101455.63
2023-05-18T20:56:05.543Z,101458.56
2023-05-18T20:59:10.112Z,101474.69
2023-05-18T21:02:12.259Z,101495.06
2023-05-18T21:05:15.174Z,101525.56
2023-05-18T21:08:17.296Z,101547.84
2023-05-18T21:11:19.757Z,101565.88
2023-05-18T21:14:22.501Z,101536.84
2023-05-18T21:17:24.571Z,101514.38
2023-05-18T21:20:27.090Z,101502.19
2023-05-18T21:23:29.394Z,101488.94
2023-05-18T21:26:31.772Z,101481.50
2023-05-18T21:29:33.770Z,101494.94
2023-05-18T21:32:35.996Z,101489.28
2023-05-18T21:35:38.210Z,101486.13
2023-05-18T21:38:40.272Z,101496.59
2023-05-18T21:41:44.408Z,101508.75
2023-05-18T21:44:46.641Z,101517.13
2023-05-18T21:47:50.871Z,101509.53
2023-05-18T21:50:54.355Z,101520.88
2023-05-18T21:53:56.405Z,101523.59
2023-05-18T21:56:59.576Z,101521.53
2023-05-18T22:00:02.124Z,101521.94
2023-05-18T22:03:15.313Z,101542.56
2023-05-18T22:06:20.589Z,101532.00
2023-05-18T22:09:22.716Z,101540.19
2023-05-18T22:12:24.889Z,101541.63
2023-05-18T22:15:28.457Z,101522.94
2023-05-18T22:18:31.043Z,101519.81
2023-05-18T22:21:33.144Z,101505.88
2023-05-18T22:24:35.565Z,101500.19
2023-05-18T22:27:39.086Z,101489.25
2023-05-18T22:30:41.219Z,101491.97
2023-05-18T22:33:44.674Z,101510.63
2023-05-18T22:36:46.744Z,101532.28
2023-05-18T22:39:48.852Z,101524.66
2023-05-18T22:42:50.937Z,101529.53
2023-05-18T22:45:53.047Z,101529.72
2023-05-18T22:48:55.216Z,101524.06
2023-05-18T22:51:57.689Z,101532.25
2023-05-18T22:54:59.970Z,101521.09
2023-05-18T22:58:03.145Z,101533.50
2023-05-18T23:01:06.344Z,101531.75
2023-05-18T23:04:08.705Z,101542.28
2023-05-18T23:07:14.097Z,101530.06
2023-05-18T23:10:16.651Z,101539.06
2023-05-18T23:13:19.764Z,101533.69
2023-05-18T23:16:24.262Z,101532.72
2023-05-18T23:19:27.003Z,101527.41
2023-05-18T23:22:29.223Z,101526.88
2023-05-18T23:25:31.481Z,101529.91
2023-05-18T23:28:34.977Z,101540.03
2023-05-18T23:31:37.916Z,101529.16
2023-05-18T23:34:40.531Z,101527.09
2023-05-18T23:37:43.599Z,101530.66
2023-05-18T23:40:47.812Z,101528.72
2023-05-18T23:43:50.640Z,101533.66
2023-05-18T23:46:53.635Z,101528.66
2023-05-18T23:49:56.312Z,101518.28
2023-05-18T23:53:03.374Z,101520.38
2023-05-18T23:56:07.170Z,101540.53
2023-05-18T23:59:10.736Z,101553.91
